LPE2062 SPZO-SPJC
Flight info
| Callsign | LPE2062 |
|---|---|
| Flight time | 1h 1m |
| Altitude | 36000 |
| Route | GAXUN UT321 UDENI UT332 PEROV |
| Aircraft | A321/M-SDE3FGHIRWY/LB1 |
Departure
| Time | 2026-04-28 19:41 |
|---|---|
| Airport | Alejandro Velasco Astete International Airport (SPZO) |
Arrival
| Time | 2026-04-28 20:42 |
|---|---|
| Airport | Jorge Chávez International Airport (SPJC) |
| Time | Latitude | Longitude | Altitude | Speed | Heading |
|---|---|---|---|---|---|
| 2026-04-28 19:27 | -13.53716 | -71.94384 | 10817 ft | 0 kts | 205° |
| 2026-04-28 19:33 | -13.53700 | -71.94377 | 10814 ft | 3 kts | 205° |
| 2026-04-28 19:33 | -13.53683 | -71.94369 | 10816 ft | 3 kts | 205° |
| 2026-04-28 19:33 | -13.53667 | -71.94359 | 10816 ft | 3 kts | 243° |
| 2026-04-28 19:33 | -13.53663 | -71.94343 | 10816 ft | 1 kts | 276° |
| 2026-04-28 19:35 | -13.53663 | -71.94345 | 10816 ft | 2 kts | 277° |
| 2026-04-28 19:35 | -13.53657 | -71.94387 | 10816 ft | 10 kts | 277° |
| 2026-04-28 19:35 | -13.53650 | -71.94454 | 10817 ft | 9 kts | 276° |
| 2026-04-28 19:35 | -13.53642 | -71.94537 | 10817 ft | 12 kts | 275° |
| 2026-04-28 19:36 | -13.53635 | -71.94605 | 10821 ft | 8 kts | 276° |
| 2026-04-28 19:36 | -13.53629 | -71.94662 | 10824 ft | 8 kts | 276° |
| 2026-04-28 19:36 | -13.53623 | -71.94722 | 10828 ft | 9 kts | 276° |
| 2026-04-28 19:36 | -13.53617 | -71.94784 | 10832 ft | 9 kts | 276° |
| 2026-04-28 19:37 | -13.53612 | -71.94832 | 10834 ft | 5 kts | 276° |
| 2026-04-28 19:37 | -13.53609 | -71.94857 | 10837 ft | 6 kts | 276° |
| 2026-04-28 19:37 | -13.53601 | -71.94932 | 10852 ft | 9 kts | 276° |
| 2026-04-28 19:37 | -13.53594 | -71.95003 | 10848 ft | 11 kts | 276° |
| 2026-04-28 19:38 | -13.53588 | -71.95081 | 10860 ft | 11 kts | 271° |
| 2026-04-28 19:38 | -13.53582 | -71.95168 | 10861 ft | 13 kts | 275° |
| 2026-04-28 19:38 | -13.53570 | -71.95281 | 10866 ft | 19 kts | 277° |
| 2026-04-28 19:38 | -13.53553 | -71.95425 | 10868 ft | 18 kts | 283° |
| 2026-04-28 19:39 | -13.53476 | -71.95455 | 10864 ft | 12 kts | 25° |
| 2026-04-28 19:39 | -13.53423 | -71.95409 | 10865 ft | 8 kts | 62° |
| 2026-04-28 19:39 | -13.53423 | -71.95356 | 10865 ft | 8 kts | 96° |
| 2026-04-28 19:39 | -13.53438 | -71.95209 | 10863 ft | 46 kts | 96° |
| 2026-04-28 19:40 | -13.53491 | -71.94657 | 10825 ft | 107 kts | 96° |
| 2026-04-28 19:40 | -13.53587 | -71.93724 | 10801 ft | 154 kts | 96° |
| 2026-04-28 19:40 | -13.53710 | -71.92475 | 10725 ft | 195 kts | 95° |
| 2026-04-28 19:40 | -13.53864 | -71.91079 | 11252 ft | 192 kts | 95° |
| 2026-04-28 19:41 | -13.54005 | -71.89736 | 11890 ft | 193 kts | 99° |
| 2026-04-28 19:41 | -13.54350 | -71.88379 | 12253 ft | 201 kts | 110° |
| 2026-04-28 19:41 | -13.54962 | -71.87051 | 12432 ft | 209 kts | 115° |
| 2026-04-28 19:41 | -13.55553 | -71.85654 | 12623 ft | 218 kts | 107° |
| 2026-04-28 19:42 | -13.56065 | -71.84156 | 12798 ft | 227 kts | 108° |
| 2026-04-28 19:42 | -13.56744 | -71.82654 | 12938 ft | 239 kts | 124° |
| 2026-04-28 19:42 | -13.57813 | -71.81314 | 13121 ft | 246 kts | 128° |
| 2026-04-28 19:42 | -13.58560 | -71.80395 | 13219 ft | 249 kts | 128° |
| 2026-04-28 19:43 | -13.59974 | -71.78515 | 13379 ft | 253 kts | 116° |
| 2026-04-28 19:43 | -13.60486 | -71.76789 | 13482 ft | 254 kts | 91° |
| 2026-04-28 19:43 | -13.60295 | -71.74992 | 13560 ft | 255 kts | 69° |
| 2026-04-28 19:43 | -13.59443 | -71.73412 | 13621 ft | 255 kts | 47° |
| 2026-04-28 19:44 | -13.58050 | -71.72293 | 13685 ft | 256 kts | 25° |
| 2026-04-28 19:44 | -13.56330 | -71.71829 | 13758 ft | 259 kts | 2° |
| 2026-04-28 19:44 | -13.54530 | -71.72110 | 13828 ft | 268 kts | 339° |
| 2026-04-28 19:44 | -13.52959 | -71.73149 | 13919 ft | 274 kts | 315° |
| 2026-04-28 19:45 | -13.51733 | -71.74700 | 14028 ft | 286 kts | 309° |
| 2026-04-28 19:45 | -13.50473 | -71.76369 | 14158 ft | 305 kts | 309° |
| 2026-04-28 19:45 | -13.49138 | -71.78132 | 14286 ft | 321 kts | 309° |
| 2026-04-28 19:45 | -13.47728 | -71.79991 | 14417 ft | 337 kts | 309° |
| 2026-04-28 19:46 | -13.46260 | -71.81928 | 14540 ft | 350 kts | 308° |
| 2026-04-28 19:46 | -13.45028 | -71.84132 | 14688 ft | 365 kts | 290° |
| 2026-04-28 19:46 | -13.44222 | -71.86634 | 15043 ft | 371 kts | 290° |
| 2026-04-28 19:46 | -13.43330 | -71.89133 | 15502 ft | 374 kts | 291° |
| 2026-04-28 19:47 | -13.42377 | -71.91634 | 15963 ft | 377 kts | 292° |
| 2026-04-28 19:47 | -13.41398 | -71.94151 | 16362 ft | 381 kts | 291° |
| 2026-04-28 19:47 | -13.40418 | -71.96688 | 16888 ft | 384 kts | 291° |
| 2026-04-28 19:47 | -13.39443 | -71.99254 | 17446 ft | 388 kts | 291° |
| 2026-04-28 19:48 | -13.38474 | -72.01851 | 17994 ft | 391 kts | 290° |
| 2026-04-28 19:48 | -13.37506 | -72.04474 | 18477 ft | 394 kts | 290° |
| 2026-04-28 19:48 | -13.36538 | -72.07112 | 18814 ft | 396 kts | 290° |
| 2026-04-28 19:48 | -13.35562 | -72.09768 | 19010 ft | 398 kts | 290° |
| 2026-04-28 19:49 | -13.34580 | -72.12432 | 19381 ft | 400 kts | 290° |
| 2026-04-28 19:49 | -13.33593 | -72.15104 | 19750 ft | 402 kts | 289° |
| 2026-04-28 19:49 | -13.32599 | -72.17793 | 20104 ft | 403 kts | 290° |
| 2026-04-28 19:49 | -13.31600 | -72.20494 | 20453 ft | 405 kts | 290° |
| 2026-04-28 19:50 | -13.29595 | -72.25891 | 21119 ft | 409 kts | 290° |
| 2026-04-28 19:50 | -13.28579 | -72.28629 | 21511 ft | 411 kts | 290° |
| 2026-04-28 19:50 | -13.27561 | -72.31374 | 21873 ft | 412 kts | 290° |
| 2026-04-28 19:51 | -13.26537 | -72.34132 | 22208 ft | 415 kts | 289° |
| 2026-04-28 19:51 | -13.25507 | -72.36903 | 22553 ft | 416 kts | 289° |
| 2026-04-28 19:51 | -13.24476 | -72.39682 | 22872 ft | 417 kts | 289° |
| 2026-04-28 19:51 | -13.23439 | -72.42482 | 23164 ft | 419 kts | 290° |
| 2026-04-28 19:52 | -13.22397 | -72.45287 | 23476 ft | 421 kts | 290° |
| 2026-04-28 19:52 | -13.21398 | -72.47975 | 23737 ft | 422 kts | 290° |
| 2026-04-28 19:52 | -13.20313 | -72.50895 | 23991 ft | 424 kts | 290° |
| 2026-04-28 19:52 | -13.19259 | -72.53731 | 24277 ft | 426 kts | 290° |
| 2026-04-28 19:53 | -13.18198 | -72.56584 | 24555 ft | 427 kts | 290° |
| 2026-04-28 19:53 | -13.17151 | -72.59400 | 24856 ft | 428 kts | 290° |
| 2026-04-28 19:53 | -13.16088 | -72.62254 | 25171 ft | 428 kts | 290° |
| 2026-04-28 19:53 | -13.15022 | -72.65113 | 25474 ft | 429 kts | 290° |
| 2026-04-28 19:54 | -13.13954 | -72.67979 | 25742 ft | 431 kts | 290° |
| 2026-04-28 19:54 | -13.12878 | -72.70857 | 26013 ft | 432 kts | 290° |
| 2026-04-28 19:54 | -13.11796 | -72.73750 | 26270 ft | 434 kts | 290° |
| 2026-04-28 19:54 | -13.10715 | -72.76645 | 26533 ft | 435 kts | 290° |
| 2026-04-28 19:55 | -13.09759 | -72.79589 | 26787 ft | 436 kts | 283° |
| 2026-04-28 19:55 | -13.09071 | -72.82620 | 27038 ft | 437 kts | 282° |
| 2026-04-28 19:55 | -13.08383 | -72.85662 | 27304 ft | 439 kts | 283° |
| 2026-04-28 19:55 | -13.07691 | -72.88715 | 27573 ft | 440 kts | 283° |
| 2026-04-28 19:56 | -13.06997 | -72.91773 | 27815 ft | 441 kts | 283° |
| 2026-04-28 19:56 | -13.06298 | -72.94848 | 28082 ft | 442 kts | 283° |
| 2026-04-28 19:56 | -13.05596 | -72.97925 | 28308 ft | 444 kts | 283° |
| 2026-04-28 19:56 | -13.04891 | -73.01012 | 28545 ft | 445 kts | 283° |
| 2026-04-28 19:57 | -13.04186 | -73.04109 | 28788 ft | 446 kts | 283° |
| 2026-04-28 19:57 | -13.03477 | -73.07214 | 29031 ft | 448 kts | 283° |
| 2026-04-28 19:57 | -13.02766 | -73.10330 | 29243 ft | 449 kts | 283° |
| 2026-04-28 19:57 | -13.02052 | -73.13452 | 29461 ft | 451 kts | 283° |
| 2026-04-28 19:58 | -13.01334 | -73.16583 | 29703 ft | 452 kts | 283° |
| 2026-04-28 19:58 | -13.00613 | -73.19728 | 29898 ft | 453 kts | 283° |
| 2026-04-28 19:58 | -12.99892 | -73.22872 | 30095 ft | 454 kts | 283° |
| 2026-04-28 19:58 | -12.99176 | -73.25992 | 30262 ft | 455 kts | 283° |
| 2026-04-28 19:59 | -12.98453 | -73.29154 | 30440 ft | 456 kts | 283° |
| 2026-04-28 19:59 | -12.97726 | -73.32328 | 30681 ft | 456 kts | 283° |
| 2026-04-28 19:59 | -12.97002 | -73.35481 | 31003 ft | 454 kts | 283° |
| 2026-04-28 19:59 | -12.96282 | -73.38626 | 31313 ft | 452 kts | 283° |
| 2026-04-28 20:00 | -12.95560 | -73.41764 | 31622 ft | 451 kts | 284° |
| 2026-04-28 20:00 | -12.94839 | -73.44889 | 31871 ft | 451 kts | 284° |
| 2026-04-28 20:00 | -12.94115 | -73.48022 | 32060 ft | 452 kts | 284° |
| 2026-04-28 20:00 | -12.93390 | -73.51163 | 32306 ft | 453 kts | 284° |
| 2026-04-28 20:01 | -12.92665 | -73.54300 | 32567 ft | 452 kts | 284° |
| 2026-04-28 20:01 | -12.91943 | -73.57436 | 32832 ft | 452 kts | 284° |
| 2026-04-28 20:01 | -12.91224 | -73.60569 | 33107 ft | 451 kts | 284° |
| 2026-04-28 20:01 | -12.90504 | -73.63702 | 33375 ft | 451 kts | 284° |
| 2026-04-28 20:02 | -12.89783 | -73.66830 | 33669 ft | 449 kts | 284° |
| 2026-04-28 20:02 | -12.89064 | -73.69939 | 34077 ft | 445 kts | 284° |
| 2026-04-28 20:02 | -12.88350 | -73.73016 | 34367 ft | 443 kts | 284° |
| 2026-04-28 20:02 | -12.87638 | -73.76083 | 34611 ft | 442 kts | 285° |
| 2026-04-28 20:03 | -12.86930 | -73.79139 | 34847 ft | 441 kts | 285° |
| 2026-04-28 20:03 | -12.86221 | -73.82198 | 35079 ft | 441 kts | 285° |
| 2026-04-28 20:03 | -12.85515 | -73.85246 | 35301 ft | 440 kts | 285° |
| 2026-04-28 20:03 | -12.84804 | -73.88299 | 35492 ft | 440 kts | 285° |
| 2026-04-28 20:04 | -12.84095 | -73.91350 | 35722 ft | 440 kts | 285° |
| 2026-04-28 20:04 | -12.83390 | -73.94397 | 35937 ft | 440 kts | 285° |
| 2026-04-28 20:04 | -12.82686 | -73.97449 | 36025 ft | 439 kts | 285° |
| 2026-04-28 20:05 | -12.81277 | -74.03517 | 36042 ft | 435 kts | 286° |
| 2026-04-28 20:05 | -12.79878 | -74.09531 | 36022 ft | 433 kts | 286° |
| 2026-04-28 20:06 | -12.78480 | -74.15528 | 36026 ft | 433 kts | 286° |
| 2026-04-28 20:06 | -12.77312 | -74.20513 | 36028 ft | 433 kts | 286° |
| 2026-04-28 20:07 | -12.75908 | -74.26516 | 36009 ft | 433 kts | 286° |
| 2026-04-28 20:07 | -12.74280 | -74.33501 | 36012 ft | 433 kts | 286° |
| 2026-04-28 20:08 | -12.73104 | -74.38506 | 36031 ft | 433 kts | 286° |
| 2026-04-28 20:08 | -12.71702 | -74.44477 | 36040 ft | 431 kts | 286° |
| 2026-04-28 20:09 | -12.70310 | -74.50449 | 36046 ft | 430 kts | 286° |
| 2026-04-28 20:09 | -12.68918 | -74.56392 | 36040 ft | 429 kts | 286° |
| 2026-04-28 20:10 | -12.67518 | -74.62328 | 36032 ft | 429 kts | 286° |
| 2026-04-28 20:10 | -12.66128 | -74.68271 | 36024 ft | 430 kts | 286° |
| 2026-04-28 20:11 | -12.64724 | -74.74235 | 36022 ft | 431 kts | 286° |
| 2026-04-28 20:11 | -12.63306 | -74.80225 | 36037 ft | 432 kts | 286° |
| 2026-04-28 20:12 | -12.61898 | -74.86172 | 36037 ft | 433 kts | 286° |
| 2026-04-28 20:12 | -12.60485 | -74.92172 | 36036 ft | 433 kts | 286° |
| 2026-04-28 20:13 | -12.59072 | -74.98168 | 36039 ft | 433 kts | 286° |
| 2026-04-28 20:13 | -12.57655 | -75.04165 | 36045 ft | 434 kts | 286° |
| 2026-04-28 20:14 | -12.56232 | -75.10158 | 36066 ft | 433 kts | 286° |
| 2026-04-28 20:14 | -12.54810 | -75.16151 | 36074 ft | 432 kts | 286° |
| 2026-04-28 20:15 | -12.53392 | -75.22131 | 36078 ft | 432 kts | 286° |
| 2026-04-28 20:15 | -12.51975 | -75.28093 | 36039 ft | 431 kts | 286° |
| 2026-04-28 20:15 | -12.51279 | -75.31070 | 35789 ft | 430 kts | 286° |
| 2026-04-28 20:16 | -12.50603 | -75.34051 | 35537 ft | 430 kts | 285° |
| 2026-04-28 20:16 | -12.49935 | -75.37030 | 35312 ft | 430 kts | 285° |
| 2026-04-28 20:16 | -12.49264 | -75.40013 | 35081 ft | 430 kts | 285° |
| 2026-04-28 20:16 | -12.48591 | -75.42998 | 34852 ft | 430 kts | 285° |
| 2026-04-28 20:17 | -12.47919 | -75.45978 | 34624 ft | 430 kts | 285° |
| 2026-04-28 20:17 | -12.47243 | -75.48962 | 34399 ft | 431 kts | 285° |
| 2026-04-28 20:17 | -12.46561 | -75.51964 | 34194 ft | 437 kts | 285° |
| 2026-04-28 20:17 | -12.45863 | -75.55025 | 33957 ft | 443 kts | 285° |
| 2026-04-28 20:18 | -12.45158 | -75.58106 | 33701 ft | 446 kts | 285° |
| 2026-04-28 20:18 | -12.44688 | -75.60157 | 33531 ft | 447 kts | 285° |
| 2026-04-28 20:18 | -12.43738 | -75.64313 | 33209 ft | 449 kts | 285° |
| 2026-04-28 20:18 | -12.43036 | -75.67392 | 32963 ft | 451 kts | 285° |
| 2026-04-28 20:19 | -12.42322 | -75.70525 | 32717 ft | 452 kts | 284° |
| 2026-04-28 20:19 | -12.41606 | -75.73664 | 32466 ft | 454 kts | 284° |
| 2026-04-28 20:19 | -12.40886 | -75.76815 | 32222 ft | 455 kts | 284° |
| 2026-04-28 20:19 | -12.40162 | -75.79973 | 31991 ft | 457 kts | 284° |
| 2026-04-28 20:20 | -12.39432 | -75.83157 | 31752 ft | 461 kts | 284° |
| 2026-04-28 20:20 | -12.38699 | -75.86352 | 31514 ft | 462 kts | 284° |
| 2026-04-28 20:20 | -12.37966 | -75.89558 | 31280 ft | 463 kts | 284° |
| 2026-04-28 20:20 | -12.37230 | -75.92764 | 31047 ft | 464 kts | 284° |
| 2026-04-28 20:21 | -12.36490 | -75.95982 | 30726 ft | 464 kts | 284° |
| 2026-04-28 20:21 | -12.35746 | -75.99221 | 29550 ft | 472 kts | 283° |
| 2026-04-28 20:21 | -12.34991 | -76.02514 | 28466 ft | 477 kts | 283° |
| 2026-04-28 20:21 | -12.34237 | -76.05823 | 27576 ft | 478 kts | 283° |
| 2026-04-28 20:22 | -12.33508 | -76.09135 | 26922 ft | 478 kts | 282° |
| 2026-04-28 20:22 | -12.32792 | -76.12464 | 26186 ft | 480 kts | 282° |
| 2026-04-28 20:22 | -12.32080 | -76.15816 | 25444 ft | 482 kts | 282° |
| 2026-04-28 20:22 | -12.31366 | -76.19171 | 24718 ft | 486 kts | 282° |
| 2026-04-28 20:23 | -12.30643 | -76.22552 | 23949 ft | 485 kts | 281° |
| 2026-04-28 20:23 | -12.29918 | -76.25922 | 23134 ft | 483 kts | 281° |
| 2026-04-28 20:23 | -12.29201 | -76.29256 | 22403 ft | 478 kts | 281° |
| 2026-04-28 20:23 | -12.28493 | -76.32563 | 21683 ft | 474 kts | 282° |
| 2026-04-28 20:24 | -12.27790 | -76.35840 | 20987 ft | 470 kts | 282° |
| 2026-04-28 20:24 | -12.27090 | -76.39090 | 20232 ft | 466 kts | 282° |
| 2026-04-28 20:24 | -12.26395 | -76.42295 | 19791 ft | 455 kts | 282° |
| 2026-04-28 20:24 | -12.25719 | -76.45396 | 19671 ft | 438 kts | 282° |
| 2026-04-28 20:25 | -12.25080 | -76.48338 | 19555 ft | 421 kts | 282° |
| 2026-04-28 20:25 | -12.24462 | -76.51206 | 19388 ft | 405 kts | 282° |
| 2026-04-28 20:25 | -12.23865 | -76.53980 | 19168 ft | 394 kts | 282° |
| 2026-04-28 20:25 | -12.23285 | -76.56675 | 18942 ft | 384 kts | 282° |
| 2026-04-28 20:26 | -12.22717 | -76.59306 | 18719 ft | 374 kts | 282° |
| 2026-04-28 20:26 | -12.22162 | -76.61873 | 18497 ft | 365 kts | 282° |
| 2026-04-28 20:26 | -12.21618 | -76.64381 | 18273 ft | 357 kts | 282° |
| 2026-04-28 20:26 | -12.21085 | -76.66831 | 17985 ft | 349 kts | 282° |
| 2026-04-28 20:27 | -12.20560 | -76.69226 | 17734 ft | 342 kts | 282° |
| 2026-04-28 20:27 | -12.20045 | -76.71576 | 17482 ft | 337 kts | 282° |
| 2026-04-28 20:27 | -12.19536 | -76.73904 | 17233 ft | 335 kts | 282° |
| 2026-04-28 20:27 | -12.19028 | -76.76219 | 16982 ft | 333 kts | 282° |
| 2026-04-28 20:28 | -12.18521 | -76.78527 | 16727 ft | 332 kts | 282° |
| 2026-04-28 20:28 | -12.18015 | -76.80829 | 16292 ft | 331 kts | 282° |
| 2026-04-28 20:28 | -12.17507 | -76.83135 | 15866 ft | 332 kts | 282° |
| 2026-04-28 20:28 | -12.17003 | -76.85433 | 15491 ft | 330 kts | 282° |
| 2026-04-28 20:29 | -12.16502 | -76.87717 | 15030 ft | 328 kts | 282° |
| 2026-04-28 20:29 | -12.16005 | -76.89971 | 14552 ft | 323 kts | 282° |
| 2026-04-28 20:29 | -12.15510 | -76.92220 | 14117 ft | 325 kts | 282° |
| 2026-04-28 20:29 | -12.15012 | -76.94484 | 13644 ft | 325 kts | 282° |
| 2026-04-28 20:30 | -12.14525 | -76.96701 | 13181 ft | 316 kts | 282° |
| 2026-04-28 20:30 | -12.14052 | -76.98860 | 12759 ft | 314 kts | 282° |
| 2026-04-28 20:30 | -12.13573 | -77.01050 | 12327 ft | 316 kts | 282° |
| 2026-04-28 20:30 | -12.13097 | -77.03229 | 11885 ft | 310 kts | 282° |
| 2026-04-28 20:31 | -12.12626 | -77.05379 | 11477 ft | 311 kts | 282° |
| 2026-04-28 20:31 | -12.12156 | -77.07535 | 11051 ft | 311 kts | 282° |
| 2026-04-28 20:31 | -12.11683 | -77.09702 | 10613 ft | 312 kts | 282° |
| 2026-04-28 20:31 | -12.11208 | -77.11872 | 10187 ft | 313 kts | 282° |
| 2026-04-28 20:32 | -12.10729 | -77.14047 | 9763 ft | 314 kts | 282° |
| 2026-04-28 20:32 | -12.10256 | -77.16181 | 9642 ft | 302 kts | 284° |
| 2026-04-28 20:32 | -12.09466 | -77.18141 | 9534 ft | 297 kts | 303° |
| 2026-04-28 20:32 | -12.08094 | -77.19708 | 9240 ft | 298 kts | 323° |
| 2026-04-28 20:33 | -12.06300 | -77.20745 | 8824 ft | 297 kts | 334° |
| 2026-04-28 20:33 | -12.04441 | -77.21652 | 8424 ft | 296 kts | 334° |
| 2026-04-28 20:33 | -12.02591 | -77.22559 | 8030 ft | 294 kts | 334° |
| 2026-04-28 20:33 | -12.00750 | -77.23470 | 7648 ft | 294 kts | 334° |
| 2026-04-28 20:34 | -11.98926 | -77.24404 | 7261 ft | 292 kts | 333° |
| 2026-04-28 20:34 | -11.97116 | -77.25348 | 6883 ft | 291 kts | 333° |
| 2026-04-28 20:34 | -11.95320 | -77.26293 | 6508 ft | 290 kts | 333° |
| 2026-04-28 20:34 | -11.93532 | -77.27236 | 6124 ft | 289 kts | 333° |
| 2026-04-28 20:35 | -11.91745 | -77.28170 | 5702 ft | 288 kts | 334° |
| 2026-04-28 20:35 | -11.89968 | -77.29066 | 5390 ft | 283 kts | 334° |
| 2026-04-28 20:35 | -11.88200 | -77.29935 | 5016 ft | 281 kts | 335° |
| 2026-04-28 20:35 | -11.86412 | -77.30725 | 4614 ft | 279 kts | 346° |
| 2026-04-28 20:36 | -11.84514 | -77.30670 | 4227 ft | 275 kts | 20° |
| 2026-04-28 20:36 | -11.82989 | -77.29561 | 3826 ft | 271 kts | 51° |
| 2026-04-28 20:36 | -11.82031 | -77.27960 | 3500 ft | 265 kts | 69° |
| 2026-04-28 20:36 | -11.81602 | -77.26174 | 3419 ft | 249 kts | 86° |
| 2026-04-28 20:37 | -11.81669 | -77.24461 | 3320 ft | 236 kts | 101° |
| 2026-04-28 20:37 | -11.82141 | -77.22905 | 3081 ft | 231 kts | 115° |
| 2026-04-28 20:37 | -11.82994 | -77.21518 | 2750 ft | 228 kts | 130° |
| 2026-04-28 20:37 | -11.84136 | -77.20430 | 2445 ft | 223 kts | 145° |
| 2026-04-28 20:38 | -11.85468 | -77.19671 | 2161 ft | 216 kts | 155° |
| 2026-04-28 20:38 | -11.86809 | -77.19011 | 1896 ft | 213 kts | 156° |
| 2026-04-28 20:38 | -11.88146 | -77.18353 | 1644 ft | 212 kts | 157° |
| 2026-04-28 20:38 | -11.89477 | -77.17697 | 1663 ft | 213 kts | 158° |
| 2026-04-28 20:39 | -11.90813 | -77.17039 | 1643 ft | 209 kts | 157° |
| 2026-04-28 20:39 | -11.92087 | -77.16411 | 1634 ft | 198 kts | 156° |
| 2026-04-28 20:39 | -11.93304 | -77.15811 | 1604 ft | 194 kts | 156° |
| 2026-04-28 20:39 | -11.94505 | -77.15220 | 1423 ft | 187 kts | 156° |
| 2026-04-28 20:40 | -11.95644 | -77.14657 | 1161 ft | 173 kts | 156° |
| 2026-04-28 20:40 | -11.96687 | -77.14142 | 942 ft | 164 kts | 158° |
| 2026-04-28 20:40 | -11.97702 | -77.13641 | 737 ft | 160 kts | 157° |
| 2026-04-28 20:40 | -11.98700 | -77.13153 | 555 ft | 159 kts | 157° |
| 2026-04-28 20:41 | -11.99694 | -77.12667 | 322 ft | 159 kts | 155° |
| 2026-04-28 20:41 | -12.00687 | -77.12170 | 122 ft | 159 kts | 156° |
| 2026-04-28 20:41 | -12.01649 | -77.11697 | 81 ft | 142 kts | 155° |
| 2026-04-28 20:41 | -12.02347 | -77.11355 | 99 ft | 84 kts | 154° |
| 2026-04-28 20:42 | -12.02716 | -77.11168 | 107 ft | 31 kts | 152° |
| 2026-04-28 20:42 | -12.02864 | -77.11021 | 110 ft | 29 kts | 130° |
| 2026-04-28 20:42 | -12.02946 | -77.10895 | 113 ft | 13 kts | 121° |
| 2026-04-28 20:42 | -12.02946 | -77.10822 | 114 ft | 9 kts | 52° |
| 2026-04-28 20:43 | -12.02889 | -77.10807 | 116 ft | 9 kts | 8° |
| 2026-04-28 20:43 | -12.02829 | -77.10814 | 112 ft | 9 kts | 332° |
| 2026-04-28 20:43 | -12.02769 | -77.10844 | 114 ft | 10 kts | 335° |
| 2026-04-28 20:43 | -12.02718 | -77.10844 | 113 ft | 6 kts | 50° |
| 2026-04-28 20:44 | -12.02697 | -77.10825 | 113 ft | 3 kts | 38° |
| 2026-04-28 20:44 | -12.02687 | -77.10816 | 112 ft | 3 kts | 39° |
| 2026-04-28 20:44 | -12.02682 | -77.10812 | 112 ft | 0 kts | 39° |